American Glory — WDA8860 — position and weather

sailwx.info

Track history (hours):
 
Tides and Currents Weather Stations Pressure Air Temp Water Temp Dewpoint Dewpoint Depression Visibility Wind Speed Wind Dir Waves Ship Positions

American Glory

Owner: AMERICAN CRUISE LINES INC, DELMAR, DE. More information available from US FCC via Universal Licensing System and Coast Guard Vessel Documentation Center.

Last reported at 2014-Nov-27 05:20 UTC. Time now 2014-Dec-21 18:02 UTC.
Position N 31°59' W 081°03'.
Warning: this ship's position is 24 days out of date.

Length 54 m; draft 2.1 m.

Type: Passenger vessel. MMSI: 366858820.

Date/timePositionNaut miles runAvg speedWind from/ knotsBaromVisibWave heightAir tempDewpointWater temp
2014-Nov-27 05:20N 31°59' W 081°03'4 5.2
2014-Nov-27 04:33N 32°03' W 081°02'2 1.8
2014-Nov-27 03:22N 32°05' W 081°03'2 0.4
2014-Nov-26 21:03N 32°05' W 081°06'0 0.0
2014-Nov-26 20:33N 32°05' W 081°06'0 0.0
2014-Nov-26 19:33N 32°05' W 081°06'0 0.0
2014-Nov-26 18:33N 32°05' W 081°06'0 0.0
2014-Nov-26 17:33N 32°05' W 081°06'0 0.0
2014-Nov-26 16:30N 32°05' W 081°06'0 0.0
2014-Nov-26 15:30N 32°05' W 081°06'0 0.0
2014-Nov-26 14:18N 32°05' W 081°06'0 0.0
2014-Nov-26 13:33N 32°05' W 081°06'0 0.0
2014-Nov-26 12:06N 32°05' W 081°06'0 0.0
2014-Nov-26 11:33N 32°05' W 081°06'0 0.0
2014-Nov-26 09:24N 32°05' W 081°06'0 0.0
2014-Nov-26 08:30N 32°05' W 081°06'0 0.0
2014-Nov-26 07:30N 32°05' W 081°06'0 0.0
2014-Nov-26 05:33N 32°05' W 081°06'0 0.0
2014-Nov-26 04:33N 32°05' W 081°06'0 0.0
2014-Nov-26 03:33N 32°05' W 081°06'0 0.0
2014-Nov-26 02:33N 32°05' W 081°06'0 0.0
2014-Nov-26 01:33N 32°05' W 081°06'0 0.0
2014-Nov-26 00:33N 32°05' W 081°06'0 0.0
2014-Nov-25 22:24N 32°05' W 081°06'0 0.0
2014-Nov-25 21:27N 32°05' W 081°06'0 0.0
2014-Nov-25 20:33N 32°05' W 081°06'0 0.0
2014-Nov-25 19:18N 32°05' W 081°06'0 0.0
2014-Nov-25 18:31N 32°05' W 081°06'  
2014-Nov-18 18:31N 34°43' W 076°55'7 7.0
2014-Nov-18 17:33N 34°43' W 076°46'3 3.3
2014-Nov-18 16:33N 34°43' W 076°42'0 0.0
2014-Nov-18 15:33N 34°43' W 076°42'0 0.0
2014-Nov-18 14:33N 34°43' W 076°42'0 0.0
2014-Nov-18 13:33N 34°43' W 076°42'1 0.6
2014-Nov-18 12:33N 34°43' W 076°42'7 6.7
2014-Nov-18 11:33N 34°50' W 076°41'5 5.3
2014-Nov-18 10:33N 34°55' W 076°40'5 5.3
2014-Nov-18 09:33N 35°00' W 076°41'9 6.7
2014-Nov-18 08:16N 35°05' W 076°32'  
Track history (hours):
 
Tides and Currents Weather Stations Pressure Air Temp Water Temp Dewpoint Dewpoint Depression Visibility Wind Speed Wind Dir Waves Ship Positions

American Glory

Owner: AMERICAN CRUISE LINES INC, DELMAR, DE. More information available from US FCC via Universal Licensing System and Coast Guard Vessel Documentation Center.

Last reported at 2014-Nov-27 05:20 UTC. Time now 2014-Dec-21 18:02 UTC.
Position N 31°59' W 081°03'.
Warning: this ship's position is 24 days out of date.

Length 54 m; draft 2.1 m.

Type: Passenger vessel. MMSI: 366858820.

Date/timePositionNaut miles runAvg speedWind from/ knotsBaromVisibWave heightAir tempDewpointWater temp
2014-Nov-27 05:20N 31°59' W 081°03'4 5.2
2014-Nov-27 04:33N 32°03' W 081°02'2 1.8
2014-Nov-27 03:22N 32°05' W 081°03'2 0.4
2014-Nov-26 21:03N 32°05' W 081°06'0 0.0
2014-Nov-26 20:33N 32°05' W 081°06'0 0.0
2014-Nov-26 19:33N 32°05' W 081°06'0 0.0
2014-Nov-26 18:33N 32°05' W 081°06'0 0.0
2014-Nov-26 17:33N 32°05' W 081°06'0 0.0
2014-Nov-26 16:30N 32°05' W 081°06'0 0.0
2014-Nov-26 15:30N 32°05' W 081°06'0 0.0
2014-Nov-26 14:18N 32°05' W 081°06'0 0.0
2014-Nov-26 13:33N 32°05' W 081°06'0 0.0
2014-Nov-26 12:06N 32°05' W 081°06'0 0.0
2014-Nov-26 11:33N 32°05' W 081°06'0 0.0
2014-Nov-26 09:24N 32°05' W 081°06'0 0.0
2014-Nov-26 08:30N 32°05' W 081°06'0 0.0
2014-Nov-26 07:30N 32°05' W 081°06'0 0.0
2014-Nov-26 05:33N 32°05' W 081°06'0 0.0
2014-Nov-26 04:33N 32°05' W 081°06'0 0.0
2014-Nov-26 03:33N 32°05' W 081°06'0 0.0
2014-Nov-26 02:33N 32°05' W 081°06'0 0.0
2014-Nov-26 01:33N 32°05' W 081°06'0 0.0
2014-Nov-26 00:33N 32°05' W 081°06'0 0.0
2014-Nov-25 22:24N 32°05' W 081°06'0 0.0
2014-Nov-25 21:27N 32°05' W 081°06'0 0.0
2014-Nov-25 20:33N 32°05' W 081°06'0 0.0
2014-Nov-25 19:18N 32°05' W 081°06'0 0.0
2014-Nov-25 18:31N 32°05' W 081°06'  
2014-Nov-18 18:31N 34°43' W 076°55'7 7.0
2014-Nov-18 17:33N 34°43' W 076°46'3 3.3
2014-Nov-18 16:33N 34°43' W 076°42'0 0.0
2014-Nov-18 15:33N 34°43' W 076°42'0 0.0
2014-Nov-18 14:33N 34°43' W 076°42'0 0.0
2014-Nov-18 13:33N 34°43' W 076°42'1 0.6
2014-Nov-18 12:33N 34°43' W 076°42'7 6.7
2014-Nov-18 11:33N 34°50' W 076°41'5 5.3
2014-Nov-18 10:33N 34°55' W 076°40'5 5.3
2014-Nov-18 09:33N 35°00' W 076°41'9 6.7
2014-Nov-18 08:16N 35°05' W 076°32'  

Dump ship's entire track history